Pagina principale
METAR-TAF:

METAR-TAF

Aeroporti :

Aeroporto di Pola

Pola, Croazia

latitudine: 44-54N, longitudine: 013-55E, altezza: 63 m

Osservazione

Il bollettino è stato emesso 22 minuti fa, alle 20:30 UTC
Vento 7 kt da est
Temperature 11°C
Umidità 87%
Pressione 1019 hPa
Visibilità 10 km o più
nessuna nube inferiore a 1500 m e nessun cumulonembo

METAR: LDPL 212030Z 10007KT CAVOK 11/09 Q1019 NOSIG

Ora: 22:52 (20:52 UTC)

Previsione

Il bollettino è stato emesso 3 ore e 27 minuti fa, alle 17:25 UTC
Previsione valida dal 21 alle 18 UTC al 22 alle 18 UTC
Vento 6 kt da est
Visibilità 10 km o più
nessuna nube inferiore a 1500 m e nessun cumulonembo
Evoluzione graduale
dal 22 alle 10 UTC al 22 alle 12 UTC
Vento 12 kt da sud-est

TAF: LDPL 211725Z 2118/2218 09006KT CAVOK TX19/2212Z TN10/2203Z BECMG 2210/2212 14012KT

Osservazioni e previsioni meteorologiche di più di 4000 aeroporti (messaggi METAR e TAF).

Le stazioni disponibili sono rappresentate dai dischi gialli e rossi sulla carta.

Puntare il mouse per vedere il nome della stazione.

Clicca sopra per visualizzare le osservazioni e previsioni meteorologiche.

Per cambiare la mappa : fare clic sui pulsanti verdi con una croce nera per ingrandire, il pulsante verde con un trattino per diminuire, o sulla freccia verde per le mappe adiacenti.


METAR-TAF: